Latest Weather Observations for Mudgee

IDN60801

Issued at 7:05 am EDT Saturday 25 October 2014 (issued every 30 minutes, with the page automatically refreshed every 10 minutes)

About weather observations | Map of weather stations | Latest weather observations for NSW | Other Formats
Station Details ID: 062101 Name: MUDGEE AIRPORT AWS Lat: -32.56 Lon: 149.61 Height: 471.0 m
Data from the previous 72 hours. | See also: Recent months at Mudgee
Date/Time
EDT
Temp
°C
App
Temp
°C
Dew
Point
Rel
Hum
%
Delta-T
°C
Wind Press
QNH
hPa
Press
MSL
hPa
Rain
since 9 am
mm
Dir
 
Spd
km/h
Gust
km/h
Spd
kts
Gust
kts
25/07:00am 11.8 10.6 10.2 90 0.8 NNE 7 9 4 5 1018.2 1017.3 0.4
25/06:30am 11.8 12.0 10.5 92 0.7 SE 0 0 0 0 1017.8 1016.9 0.4
25/06:00am 11.4 11.4 9.7 89 0.9 E 0 0 0 0 1017.5 1016.6 0.4
25/05:30am 11.4 9.7 10.0 91 0.7 NE 9 11 5 6 1016.9 1016.1 0.4
25/05:00am 11.1 9.4 10.0 93 0.6 NE 9 15 5 8 1016.5 1015.7 0.4
25/04:30am 10.9 9.5 9.5 91 0.7 NNE 7 9 4 5 1016.3 1015.4 0.4
25/04:00am 11.8 12.0 10.5 92 0.7 CALM 0 0 0 0 1016.1 1015.2 0.4
25/03:30am 13.4 12.9 12.0 91 0.8 ENE 6 7 3 4 1016.0 1015.1 0.4
25/03:00am 13.0 12.0 11.1 88 1.0 NE 7 9 4 5 1016.0 1015.1 0.4
25/02:30am 14.0 13.0 12.4 90 0.9 NE 9 11 5 6 1016.0 1015.1 0.4
25/02:00am 14.0 12.2 12.2 89 1.0 NE 13 15 7 8 1016.0 1015.1 0.2
25/01:30am 15.8 15.7 13.3 85 1.4 ENE 6 7 3 4 1016.1 1015.2 0.2
25/01:00am 15.7 15.8 12.8 83 1.6 NNW 4 11 2 6 1016.2 1015.3 0.2
25/12:30am 16.1 14.5 12.8 81 1.9 NNE 13 13 7 7 1016.1 1015.2 0.2
25/12:00am 17.9 18.6 13.4 75 2.6 ESE 2 7 1 4 1016.2 1015.3 0.2
 
Date/Time
EDT
Temp
°C
App
Temp
°C
Dew
Point
Rel
Hum
%
Delta-T
°C
Wind Press
QNH
hPa
Press
MSL
hPa
Rain
since 9 am
mm
Dir
 
Spd
km/h
Gust
km/h
Spd
kts
Gust
kts
24/11:30pm 18.2 18.8 14.3 78 2.3 WNW 4 15 2 8 1016.2 1015.3 0.2
24/11:00pm 20.3 20.4 14.0 67 3.7 NNE 6 13 3 7 1016.1 1015.2 0.2
24/10:30pm 21.3 21.3 14.2 64 4.2 SE 7 11 4 6 1016.1 1015.2 0.2
24/10:00pm 21.5 21.2 13.4 60 4.8 NNW 7 11 4 6 1016.0 1015.1 0.2
24/09:30pm 21.0 19.8 13.9 64 4.2 NNE 13 15 7 8 1015.8 1014.9 0.2
24/09:00pm 23.5 21.6 13.1 52 6.1 SSE 15 20 8 11 1015.5 1014.6 0.2
24/08:30pm 23.7 19.8 13.3 52 6.2 SW 26 48 14 26 1015.8 1014.9 0.2
24/08:17pm 26.4 21.4 10.9 38 8.9 SW 28 52 15 28 1015.3 1014.4 0.0
24/08:00pm 27.2 24.4 8.6 31 10.4 NNE 13 17 7 9 1013.4 1012.5 0.0
24/07:30pm 27.5 24.7 8.4 30 10.6 NNE 13 15 7 8 1013.2 1012.3 0.0
24/07:00pm 28.7 26.8 8.9 29 11.2 NNE 9 11 5 6 1013.3 1012.4 0.0
24/06:30pm 30.0 27.0 7.8 25 12.4 NNW 13 19 7 10 1013.5 1012.6 0.0
24/06:00pm 31.2 27.8 7.6 23 13.2 N 15 19 8 10 1013.5 1012.6 0.0
24/05:30pm 31.8 26.9 6.8 21 13.8 WNW 22 30 12 16 1013.7 1012.8 0.0
24/05:00pm 32.5 26.4 6.7 20 14.3 NW 28 39 15 21 1013.6 1012.7 0.0
24/04:44pm 32.6 26.5 6.7 20 14.4 NW 28 50 15 27 1013.7 1012.8 0.0
24/04:30pm 33.2 26.7 6.5 19 14.8 NW 30 44 16 24 1013.9 1013.0 0.0
24/04:05pm 34.0 28.4 8.6 21 14.6 NNW 28 48 15 26 1013.8 1012.9 0.0
24/04:00pm 33.1 26.9 7.9 21 14.3 NNW 30 41 16 22 1014.2 1013.3 0.0
24/03:36pm 32.5 26.4 6.7 20 14.3 NW 28 46 15 25 1014.5 1013.6 0.0
24/03:30pm 33.0 27.2 7.8 21 14.2 NNW 28 44 15 24 1014.6 1013.8 0.0
24/03:00pm 32.8 27.6 10.2 25 13.2 N 28 39 15 21 1015.3 1014.4 0.0
24/02:30pm 31.0 26.3 9.3 26 12.4 N 24 43 13 23 1015.8 1014.9 0.0
24/02:00pm 31.6 25.9 9.8 26 12.6 N 30 43 16 23 1016.5 1015.7 0.0
24/01:30pm 32.2 27.9 10.8 27 12.6 NNW 24 39 13 21 1017.0 1016.2 0.0
24/01:00pm 30.5 26.9 11.9 31 11.1 NNE 22 37 12 20 1017.7 1016.8 0.0
24/12:30pm 29.7 25.9 11.2 31 10.9 N 22 37 12 20 1018.3 1017.5 0.0
24/12:00pm 28.9 25.8 11.5 34 10.2 N 19 33 10 18 1019.1 1018.3 0.0
24/11:30am 27.9 24.8 11.5 36 9.6 N 19 32 10 17 1019.8 1018.9 0.0
24/11:00am 26.2 23.7 11.2 39 8.7 NNE 15 24 8 13 1020.5 1019.7 0.0
24/10:30am 24.8 22.4 11.4 43 7.7 NNE 15 24 8 13 1021.1 1020.3 0.0
24/10:00am 24.0 21.4 12.0 47 6.9 NE 17 22 9 12 1021.4 1020.6 0.0
24/09:30am 22.4 20.6 13.2 56 5.4 NE 15 22 8 12 1021.8 1020.9 0.0
24/09:00am 19.6 19.3 13.3 67 3.7 N 7 9 4 5 1021.7 1020.8 0.0
24/08:30am 18.6 18.0 13.5 72 3.0 ESE 9 15 5 8 1021.5 1020.7 0.0
24/08:00am 18.6 17.8 12.8 69 3.3 S 9 15 5 8 1021.4 1020.6 0.0
24/07:30am 17.9 18.7 12.6 71 3.0 CALM 0 4 0 2 1021.2 1020.4 0.0
24/07:00am 17.4 17.3 12.1 71 3.0 E 4 7 2 4 1021.2 1020.4 0.0
24/06:30am 16.8 17.4 11.9 73 2.7 CALM 0 0 0 0 1021.3 1020.5 0.0
24/06:00am 17.1 16.7 12.4 74 2.6 SE 6 11 3 6 1020.9 1020.1 0.0
24/05:30am 17.0 14.7 13.1 78 2.2 SSW 17 20 9 11 1021.3 1020.5 0.0
24/05:00am 17.2 16.3 12.7 75 2.6 S 9 13 5 7 1020.2 1019.4 0.0
24/04:30am 17.5 15.8 12.6 73 2.8 SSE 13 19 7 10 1020.4 1019.6 0.0
24/04:00am 16.7 13.2 11.0 69 3.1 SW 20 26 11 14 1020.9 1020.1 0.0
24/03:30am 17.7 15.9 10.8 64 3.8 ESE 11 17 6 9 1020.5 1019.7 0.0
24/03:00am 17.1 15.6 10.7 66 3.5 S 9 15 5 8 1020.9 1020.1 0.0
24/02:30am 16.5 14.2 10.4 67 3.3 NE 13 15 7 8 1019.8 1018.9 0.0
24/02:00am 16.6 16.3 10.2 66 3.5 S 2 7 1 4 1019.9 1019.0 0.0
24/01:30am 17.1 17.1 9.8 62 3.9 CALM 0 0 0 0 1019.7 1018.8 0.0
24/01:00am 17.3 16.9 9.7 61 4.1 WNW 2 7 1 4 1020.2 1019.4 0.0
24/12:30am 18.6 17.3 9.9 57 4.7 SE 7 11 4 6 1020.6 1019.8 0.0
24/12:00am 18.5 17.1 9.6 56 4.8 S 7 9 4 5 1020.7 1019.9 0.0
 
Date/Time
EDT
Temp
°C
App
Temp
°C
Dew
Point
Rel
Hum
%
Delta-T
°C
Wind Press
QNH
hPa
Press
MSL
hPa
Rain
since 9 am
mm
Dir
 
Spd
km/h
Gust
km/h
Spd
kts
Gust
kts
23/11:30pm 19.2 16.7 9.7 54 5.2 S 13 15 7 8 1021.4 1020.6 0.0
23/11:00pm 18.4 16.7 9.7 57 4.7 ENE 9 11 5 6 1021.1 1020.3 0.0
23/10:30pm 20.4 18.7 9.9 51 5.8 SSE 9 13 5 7 1021.2 1020.4 0.0
23/10:00pm 20.5 20.5 9.7 50 5.9 CALM 0 7 0 4 1020.7 1019.9 0.0
23/09:30pm 21.4 20.0 9.6 47 6.5 SE 7 9 4 5 1020.4 1019.6 0.0
23/09:00pm 22.0 19.6 9.9 46 6.7 S 13 17 7 9 1019.9 1019.0 0.0
23/08:30pm 22.5 19.7 10.0 45 7.0 S 15 19 8 10 1019.2 1018.4 0.0
23/08:00pm 23.6 22.0 8.8 39 8.1 S 7 11 4 6 1018.7 1017.9 0.0
23/07:30pm 25.3 22.1 8.3 34 9.3 SSE 15 24 8 13 1017.9 1017.0 0.0
23/07:00pm 27.0 24.2 6.9 28 10.8 WSW 11 15 6 8 1017.3 1016.4 0.0
23/06:30pm 28.8 25.3 7.4 26 11.8 WSW 15 17 8 9 1016.9 1016.1 0.0
23/06:00pm 29.9 26.4 7.2 24 12.5 SSW 15 20 8 11 1016.7 1015.9 0.0
23/05:30pm 30.4 26.6 7.6 24 12.7 SW 17 26 9 14 1016.6 1015.8 0.0
23/05:00pm 30.2 26.3 8.6 26 12.2 S 19 28 10 15 1016.6 1015.8 0.0
23/04:30pm 30.2 26.1 8.6 26 12.2 WSW 20 28 11 15 1016.6 1015.8 0.0
23/04:00pm 29.9 25.3 8.3 26 12.1 SW 22 37 12 20 1016.7 1015.9 0.0
23/03:30pm 30.2 27.7 8.0 25 12.4 W 11 17 6 9 1016.8 1016.0 0.0
23/03:00pm 29.8 28.6 8.2 26 12.1 WNW 4 7 2 4 1017.4 1016.5 0.0
23/02:30pm 28.8 26.0 8.5 28 11.4 W 13 22 7 12 1018.0 1017.1 0.0
23/02:00pm 28.9 25.5 9.1 29 11.2 W 17 22 9 12 1018.7 1017.9 0.0
23/01:30pm 27.9 23.4 8.7 30 10.7 W 22 26 12 14 1019.1 1018.3 0.0
23/01:00pm 28.7 24.4 9.4 30 10.9 W 22 28 12 15 1019.4 1018.5 0.0
23/12:30pm 28.3 24.6 9.6 31 10.6 SW 19 33 10 18 1019.7 1018.8 0.0
23/12:00pm 27.7 21.9 8.1 29 10.8 SW 28 43 15 23 1020.1 1019.2 0.0
23/11:30am 27.7 23.3 9.0 31 10.5 W 22 32 12 17 1020.2 1019.4 0.0
23/11:00am 25.9 25.0 10.5 38 8.8 SSE 6 11 3 6 1020.4 1019.6 0.0
23/10:30am 24.6 24.4 10.5 41 8.0 NNE 2 9 1 5 1020.6 1019.8 0.0
23/10:00am 23.1 23.1 11.2 47 6.8 NNE 2 6 1 3 1020.8 1020.0 0.0
23/09:30am 20.8 20.8 11.2 54 5.4 NNE 2 9 1 5 1020.9 1020.1 0.0
23/09:00am 18.1 18.3 10.5 61 4.2 CALM 0 6 0 3 1020.9 1020.1 0.0
23/08:30am 16.0 16.2 10.5 70 3.0 CALM 0 0 0 0 1020.9 1020.1 0.0
23/08:00am 14.2 14.2 9.8 75 2.3 CALM 0 6 0 3 1021.0 1020.2 0.0
23/07:30am 12.3 11.8 9.5 83 1.5 NW 2 6 1 3 1021.0 1020.2 0.0
23/07:00am 10.7 10.6 9.3 91 0.7 CALM 0 0 0 0 1020.7 1019.9 0.0
23/06:30am 10.2 9.9 8.5 89 0.9 CALM 0 0 0 0 1020.4 1019.6 0.0
23/06:00am 9.7 9.2 7.8 88 0.9 CALM 0 0 0 0 1020.2 1019.4 0.0
23/05:30am 10.1 9.6 7.9 86 1.1 CALM 0 0 0 0 1020.1 1019.2 0.0
23/05:00am 11.2 10.9 8.8 85 1.2 CALM 0 0 0 0 1019.9 1019.0 0.0
23/04:30am 10.7 9.2 8.3 85 1.2 NNE 6 9 3 5 1019.8 1018.9 0.0
23/04:00am 10.3 9.4 7.7 84 1.3 NE 2 7 1 4 1019.7 1018.8 0.0
23/03:30am 12.0 11.1 9.4 84 1.3 SSE 4 7 2 4 1019.8 1018.9 0.0
23/03:00am 11.5 10.9 8.9 84 1.3 WNW 2 6 1 3 1020.2 1019.4 0.0
23/02:30am 12.2 10.7 9.0 81 1.6 ENE 7 9 4 5 1020.1 1019.2 0.0
23/02:00am 12.2 10.8 8.9 80 1.7 NNE 6 9 3 5 1020.5 1019.7 0.0
23/01:30am 13.6 12.5 10.0 79 1.9 SSE 6 9 3 5 1020.7 1019.9 0.0
23/01:00am 13.7 13.7 9.7 77 2.1 CALM 0 6 0 3 1020.7 1019.9 0.0
23/12:30am 13.9 13.8 9.5 75 2.3 CALM 0 0 0 0 1020.8 1020.0 0.0
23/12:00am 15.0 15.1 10.0 72 2.7 CALM 0 0 0 0 1020.9 1020.1 0.0
 
Date/Time
EDT
Temp
°C
App
Temp
°C
Dew
Point
Rel
Hum
%
Delta-T
°C
Wind Press
QNH
hPa
Press
MSL
hPa
Rain
since 9 am
mm
Dir
 
Spd
km/h
Gust
km/h
Spd
kts
Gust
kts
22/11:30pm 15.8 16.0 10.6 71 2.8 CALM 0 0 0 0 1020.9 1020.1 0.0
22/11:00pm 15.7 15.9 10.7 72 2.7 CALM 0 0 0 0 1020.9 1020.1 0.0
22/10:30pm 16.7 16.8 10.3 66 3.5 CALM 0 6 0 3 1020.9 1020.1 0.0
22/10:00pm 17.7 17.9 10.6 63 3.9 CALM 0 0 0 0 1020.9 1020.1 0.0
22/09:30pm 17.9 16.5 10.8 63 3.9 NE 9 11 5 6 1020.7 1019.9 0.0
22/09:00pm 18.6 17.8 10.9 61 4.3 NE 6 7 3 4 1020.6 1019.8 0.0
22/08:30pm 19.2 18.0 10.2 56 4.9 ENE 7 9 4 5 1020.3 1019.5 0.0
22/08:00pm 21.8 20.5 10.0 47 6.5 NE 7 11 4 6 1020.0 1019.1 0.0
22/07:30pm 23.5 22.7 10.9 45 7.2 N 6 7 3 4 1019.9 1019.0 0.0
22/07:00pm 25.2 24.2 10.3 39 8.4 WNW 6 9 3 5 1019.8 1018.9 0.0
22/06:30pm 26.8 25.7 10.5 36 9.3 WSW 7 9 4 5 1019.8 1018.9 0.0
22/06:00pm 26.8 24.8 10.1 35 9.5 WNW 11 17 6 9 1019.9 1019.0 0.0
22/05:30pm 27.0 25.3 9.8 34 9.8 WSW 9 13 5 7 1020.1 1019.2 0.0
22/05:00pm 26.7 24.4 10.4 36 9.3 NNW 13 20 7 11 1020.2 1019.4 0.0
22/04:30pm 26.0 24.7 9.8 36 9.1 N 7 11 4 6 1020.5 1019.7 0.0
22/04:00pm 26.0 23.5 9.8 36 9.1 NNE 13 17 7 9 1020.6 1019.8 0.0
22/03:30pm 25.7 23.9 9.5 36 9.1 W 9 17 5 9 1021.1 1020.3 0.0
22/03:00pm 25.6 24.4 10.2 38 8.7 NNW 7 17 4 9 1021.8 1020.9 0.0
22/02:30pm 24.6 23.1 9.3 38 8.5 WNW 7 13 4 7 1022.2 1021.4 0.0
22/02:00pm 24.2 22.3 9.0 38 8.4 NNW 9 13 5 7 1022.7 1021.9 0.0
22/01:30pm 23.4 21.9 9.0 40 7.9 NW 7 13 4 7 1023.3 1022.5 0.0
22/01:00pm 22.8 20.9 9.2 42 7.4 NW 9 20 5 11 1024.1 1023.3 0.0
22/12:30pm 21.3 19.7 8.2 43 7.0 W 6 11 3 6 1024.6 1023.8 0.0
22/12:00pm 21.1 19.1 8.7 45 6.7 S 9 19 5 10 1025.2 1024.4 0.0
22/11:30am 20.1 18.6 9.1 49 5.9 W 7 11 4 6 1025.8 1025.1 0.0
22/11:00am 18.6 16.3 7.4 48 5.8 SE 9 13 5 7 1026.5 1025.7 0.0
22/10:30am 17.7 15.8 6.9 49 5.5 NE 6 13 3 7 1027.0 1026.2 0.0
22/10:00am 16.7 14.7 7.1 53 4.9 SE 7 13 4 7 1027.1 1026.3 0.0
22/09:30am 15.4 13.0 6.9 57 4.3 SE 9 15 5 8 1027.3 1026.5 0.0
22/09:00am 14.7 12.0 7.3 61 3.7 SSE 11 19 6 10 1027.2 1026.4 0.0
22/08:30am 12.8 9.0 5.9 63 3.3 SSE 15 20 8 11 1027.3 1026.5 0.0
22/08:00am 12.1 9.1 6.2 67 2.8 SSE 11 15 6 8 1027.3 1026.5 0.0
22/07:30am 11.0 8.9 6.6 74 2.1 SSE 7 11 4 6 1027.3 1026.5 0.0

Other Formats:

Comma delimited format used in spreadsheet applications
http://www.bom.gov.au/fwo/IDN60801/IDN60801.94727.axf

JavaScript Object Notation format (JSON) in row-major order
http://www.bom.gov.au/fwo/IDN60801/IDN60801.94727.json